Time;durP1;ratioP1;P1;durP2;ratioP2;P2;SDS_P1;SDS_P2;PMS_P1;PMS_P2;Temp;Humidity;BMP_temperature;BMP_pressure;BME280_temperature;BME280_humidity;BME280_pressure;Samples;Min_cycle;Max_cycle;Signal;HPM_P1;HPM_P2
2022/08/05 00:00:25;;;;;;;3.40;2.42;;;31.90;36.30;;;;;;6295758;28;20154;-72
2022/08/05 00:03:26;;;;;;;3.25;2.42;;;31.90;36.50;;;;;;6294844;28;20342;-72
2022/08/05 00:06:27;;;;;;;3.35;2.50;;;31.90;36.60;;;;;;6294100;28;20089;-72
2022/08/05 00:09:28;;;;;;;3.45;2.45;;;31.80;36.80;;;;;;6276824;28;20039;-72
2022/08/05 00:12:28;;;;;;;4.25;2.67;;;31.70;36.80;;;;;;6293807;28;20028;-72
2022/08/05 00:15:29;;;;;;;3.47;2.70;;;31.70;37.50;;;;;;6295329;28;20074;-72
2022/08/05 00:18:30;;;;;;;5.38;2.75;;;31.70;36.90;;;;;;6294014;28;20426;-72
2022/08/05 00:21:31;;;;;;;2.85;2.60;;;31.70;37.10;;;;;;6295149;28;20086;-72
2022/08/05 00:24:32;;;;;;;5.00;2.45;;;31.60;37.10;;;;;;6292839;28;20457;-72
2022/08/05 00:27:33;;;;;;;2.92;2.35;;;31.60;37.80;;;;;;6297583;28;20354;-72
2022/08/05 00:30:34;;;;;;;3.28;2.50;;;31.60;37.30;;;;;;6298787;28;20382;-72
2022/08/05 00:33:35;;;;;;;4.32;2.70;;;31.50;37.30;;;;;;6299966;28;20037;-72
2022/08/05 00:36:35;;;;;;;2.92;2.50;;;31.50;37.30;;;;;;6298673;28;20041;-72
2022/08/05 00:39:36;;;;;;;11.35;2.97;;;31.50;37.30;;;;;;6299532;28;20033;-72
2022/08/05 00:42:40;;;;;;;5.55;3.05;;;31.50;37.40;;;;;;6299896;28;20033;-71
2022/08/05 00:45:42;;;;;;;3.75;2.88;;;31.50;37.50;;;;;;6298727;28;20368;-71
2022/08/05 00:48:44;;;;;;;2.45;2.25;;;31.40;37.50;;;;;;6299302;28;20036;-71
2022/08/05 00:51:45;;;;;;;3.08;2.67;;;31.40;37.60;;;;;;6298500;28;20469;-72
2022/08/05 00:54:46;;;;;;;4.35;2.88;;;31.40;37.70;;;;;;6298609;28;20040;-72
2022/08/05 00:57:47;;;;;;;3.83;2.97;;;31.40;37.80;;;;;;6302881;28;20068;-71
2022/08/05 01:00:48;;;;;;;3.83;3.05;;;31.40;37.90;;;;;;6298832;28;20032;-72
2022/08/05 01:03:49;;;;;;;3.90;3.13;;;31.30;37.90;;;;;;6298945;28;20101;-71
2022/08/05 01:06:49;;;;;;;4.80;2.90;;;31.30;38.00;;;;;;6297932;28;20036;-72
2022/08/05 01:09:50;;;;;;;3.40;2.58;;;31.30;38.10;;;;;;6281118;28;20055;-72
2022/08/05 01:13:00;;;;;;;6.57;2.92;;;31.30;38.20;;;;;;6297640;28;20477;-72
2022/08/05 01:16:03;;;;;;;4.53;2.70;;;31.20;38.30;;;;;;6298512;28;20025;-72
2022/08/05 01:19:48;;;;;;;3.60;2.70;;;31.20;38.30;;;;;;6299769;28;20067;-72
2022/08/05 01:23:04;;;;;;;5.85;2.92;;;31.10;38.60;;;;;;6282775;28;20037;-72
2022/08/05 01:26:36;;;;;;;5.03;2.97;;;31.00;38.60;;;;;;6296582;28;20036;-72
2022/08/05 01:29:41;;;;;;;2.78;2.53;;;31.00;38.60;;;;;;6244802;28;20378;-72
2022/08/05 01:32:45;;;;;;;5.05;2.95;;;30.90;38.70;;;;;;6270148;28;20425;-72
2022/08/05 01:35:48;;;;;;;3.78;2.90;;;30.90;38.80;;;;;;6262977;28;20362;-72
2022/08/05 01:38:49;;;;;;;2.85;2.55;;;30.90;39.00;;;;;;6268742;28;20083;-72
2022/08/05 01:41:53;;;;;;;3.08;2.70;;;30.80;39.00;;;;;;6269408;28;20040;-71
2022/08/05 01:44:57;;;;;;;3.33;2.90;;;30.80;39.10;;;;;;6266653;28;20086;-72
2022/08/05 01:48:00;;;;;;;3.80;2.70;;;30.80;39.20;;;;;;6268049;28;20037;-72
2022/08/05 01:51:03;;;;;;;6.95;3.00;;;30.80;39.30;;;;;;6269001;28;20043;-72
2022/08/05 01:54:06;;;;;;;2.90;2.38;;;30.70;39.40;;;;;;6261295;28;20555;-72
2022/08/05 01:57:08;;;;;;;4.97;2.70;;;30.70;39.50;;;;;;6287899;28;20481;-72
2022/08/05 02:00:10;;;;;;;9.05;2.78;;;30.70;39.50;;;;;;6276063;28;20468;-72
2022/08/05 02:03:24;;;;;;;3.33;2.65;;;30.60;39.40;;;;;;6282850;28;20033;-71
2022/08/05 02:06:25;;;;;;;2.88;2.50;;;30.60;39.50;;;;;;6278355;28;20361;-72
2022/08/05 02:09:27;;;;;;;3.45;2.88;;;30.60;39.40;;;;;;6295974;28;20028;-72
2022/08/05 02:12:55;;;;;;;3.42;2.80;;;30.60;39.50;;;;;;6285311;28;20032;-72
2022/08/05 02:16:04;;;;;;;3.23;2.63;;;30.50;39.50;;;;;;6294095;28;20028;-72
2022/08/05 02:19:10;;;;;;;2.90;2.55;;;30.50;39.50;;;;;;6278336;28;20316;-72
2022/08/05 02:22:16;;;;;;;8.00;2.70;;;30.50;39.60;;;;;;6277922;28;20039;-72
2022/08/05 02:25:23;;;;;;;5.13;2.88;;;30.50;39.70;;;;;;6295299;28;20093;-72
2022/08/05 02:28:30;;;;;;;3.53;2.70;;;30.50;39.70;;;;;;6295124;28;20032;-72
2022/08/05 02:31:34;;;;;;;5.50;3.03;;;30.50;39.70;;;;;;6295008;28;20101;-72
2022/08/05 02:34:36;;;;;;;3.45;3.08;;;30.50;39.80;;;;;;6296157;28;20342;-72
2022/08/05 02:37:38;;;;;;;17.95;3.13;;;30.50;39.80;;;;;;6295791;28;20040;-71
2022/08/05 02:40:42;;;;;;;2.83;2.47;;;30.50;39.80;;;;;;6295794;28;20040;-71
2022/08/05 02:43:45;;;;;;;4.10;2.90;;;30.50;39.90;;;;;;6290596;28;20045;-71
2022/08/05 02:46:47;;;;;;;3.10;2.80;;;30.50;39.90;;;;;;6295630;28;20041;-71
2022/08/05 02:49:49;;;;;;;3.55;2.90;;;30.60;39.90;;;;;;6295782;28;20043;-71
2022/08/05 02:52:51;;;;;;;4.57;3.15;;;30.50;39.90;;;;;;6295551;28;20477;-71
2022/08/05 02:55:53;;;;;;;3.33;2.70;;;30.50;40.00;;;;;;6294738;28;20052;-71
2022/08/05 02:58:55;;;;;;;3.28;2.90;;;30.40;40.00;;;;;;6296135;28;20385;-71
2022/08/05 03:01:59;;;;;;;6.13;2.95;;;30.40;40.10;;;;;;6293025;28;20071;-71
2022/08/05 03:05:03;;;;;;;4.80;2.90;;;30.30;40.20;;;;;;6296361;28;20036;-71
2022/08/05 03:08:05;;;;;;;3.15;2.65;;;30.30;40.30;;;;;;6297432;28;20465;-71
2022/08/05 03:11:26;;;;;;;3.33;2.60;;;30.20;40.30;;;;;;6296131;28;20044;-71
2022/08/05 03:14:26;;;;;;;3.15;2.88;;;30.20;40.40;;;;;;6295239;28;20032;-71
2022/08/05 03:17:27;;;;;;;6.50;3.08;;;30.20;40.40;;;;;;6295269;28;20135;-71
2022/08/05 03:20:28;;;;;;;11.68;3.03;;;30.20;40.50;;;;;;6295694;28;20025;-71
2022/08/05 03:23:29;;;;;;;3.55;2.85;;;30.10;40.50;;;;;;6295301;28;20033;-71
2022/08/05 03:26:30;;;;;;;3.67;3.00;;;30.10;40.70;;;;;;6294453;28;20033;-72
2022/08/05 03:29:31;;;;;;;5.28;3.25;;;30.00;40.70;;;;;;6311444;28;20093;-72
2022/08/05 03:32:32;;;;;;;3.97;3.08;;;30.00;40.80;;;;;;6295340;28;20070;-71
2022/08/05 03:35:34;;;;;;;4.70;3.63;;;29.90;40.80;;;;;;6295451;28;20495;-71
2022/08/05 03:38:43;;;;;;;5.97;2.90;;;29.80;40.90;;;;;;6295395;28;20040;-71
2022/08/05 03:41:44;;;;;;;4.30;2.65;;;29.70;40.90;;;;;;6294030;28;20481;-70
2022/08/05 03:44:44;;;;;;;5.22;2.90;;;29.70;40.90;;;;;;6293627;28;20055;-72
2022/08/05 03:47:45;;;;;;;5.95;2.95;;;29.60;40.90;;;;;;6294868;28;20064;-72
2022/08/05 03:50:55;;;;;;;9.35;2.78;;;29.60;41.00;;;;;;6295170;28;20065;-70
2022/08/05 03:54:18;;;;;;;12.35;2.53;;;29.50;41.10;;;;;;6295067;28;20036;-71
2022/08/05 03:57:26;;;;;;;7.43;2.70;;;29.30;41.10;;;;;;6287046;28;20502;-71
2022/08/05 04:00:31;;;;;;;5.43;2.30;;;29.20;41.10;;;;;;6294359;28;20041;-71
2022/08/05 04:03:34;;;;;;;5.63;3.15;;;29.20;41.20;;;;;;6294149;28;20036;-71
2022/08/05 04:06:36;;;;;;;6.05;3.15;;;29.20;41.10;;;;;;6277259;28;20524;-73
2022/08/05 04:09:38;;;;;;;7.55;2.90;;;29.20;41.10;;;;;;6294926;28;20502;-73
2022/08/05 04:12:38;;;;;;;6.28;2.75;;;29.20;41.00;;;;;;6294840;28;20029;-71
2022/08/05 04:15:40;;;;;;;7.93;3.50;;;29.30;41.00;;;;;;6295113;28;20040;-72
2022/08/05 04:18:43;;;;;;;15.93;3.38;;;29.40;40.90;;;;;;6294490;28;20059;-72
2022/08/05 04:21:44;;;;;;;6.22;2.72;;;29.40;40.70;;;;;;6294323;28;20048;-72
2022/08/05 04:24:46;;;;;;;5.93;2.72;;;29.40;40.70;;;;;;6294642;28;20037;-72
2022/08/05 04:27:47;;;;;;;7.65;3.10;;;29.50;40.80;;;;;;6294881;28;20036;-72
2022/08/05 04:30:48;;;;;;;5.80;3.15;;;29.60;40.90;;;;;;6278324;28;20369;-72
2022/08/05 04:33:49;;;;;;;3.90;2.97;;;29.60;40.90;;;;;;6295559;28;20029;-72
2022/08/05 04:36:50;;;;;;;6.80;3.00;;;29.60;41.00;;;;;;6294813;28;20033;-71
2022/08/05 04:39:51;;;;;;;5.72;2.88;;;29.60;41.00;;;;;;6295867;28;20045;-71
2022/08/05 04:42:52;;;;;;;9.43;3.40;;;29.60;41.10;;;;;;6294815;28;20044;-72
2022/08/05 04:45:52;;;;;;;3.22;2.80;;;29.60;41.10;;;;;;6295037;28;20029;-72
2022/08/05 04:48:53;;;;;;;3.45;2.83;;;29.60;41.30;;;;;;6294943;28;20060;-72
2022/08/05 04:51:54;;;;;;;3.25;2.90;;;29.50;41.40;;;;;;6283699;28;20040;-71
2022/08/05 04:54:55;;;;;;;3.97;3.10;;;29.50;41.60;;;;;;6273110;28;20041;-72
2022/08/05 04:57:56;;;;;;;5.03;3.25;;;29.50;41.70;;;;;;6286910;28;20033;-71
2022/08/05 05:00:57;;;;;;;6.60;3.08;;;29.60;41.40;;;;;;6295066;28;20067;-72
2022/08/05 05:03:58;;;;;;;5.75;2.92;;;29.70;41.30;;;;;;6295276;28;20035;-71
2022/08/05 05:06:59;;;;;;;7.07;3.10;;;29.70;41.30;;;;;;6295742;28;20040;-72
2022/08/05 05:10:03;;;;;;;5.75;3.35;;;29.70;41.30;;;;;;6294475;28;20449;-71
2022/08/05 05:13:04;;;;;;;3.78;3.17;;;29.70;41.40;;;;;;6296804;28;20037;-72
2022/08/05 05:16:05;;;;;;;4.28;2.88;;;29.60;41.50;;;;;;6294123;28;20150;-72
2022/08/05 05:19:06;;;;;;;5.78;2.92;;;29.60;41.50;;;;;;6297776;28;20087;-72
2022/08/05 05:22:06;;;;;;;5.18;3.05;;;29.50;41.50;;;;;;6299619;28;20037;-72
2022/08/05 05:25:08;;;;;;;6.22;3.00;;;29.50;41.70;;;;;;6299090;28;20047;-71
2022/08/05 05:28:10;;;;;;;4.85;3.08;;;29.40;41.80;;;;;;6299454;28;20132;-71
2022/08/05 05:31:12;;;;;;;3.45;3.05;;;29.40;41.80;;;;;;6299666;28;20088;-71
2022/08/05 05:34:12;;;;;;;7.28;3.13;;;29.40;41.90;;;;;;6298895;28;20048;-71
2022/08/05 05:37:16;;;;;;;4.90;2.90;;;29.40;42.00;;;;;;6299042;28;20040;-72
2022/08/05 05:40:19;;;;;;;4.70;2.88;;;29.40;42.00;;;;;;6298632;28;20043;-72
2022/08/05 05:43:21;;;;;;;2.88;2.58;;;29.40;42.00;;;;;;6298507;28;20090;-71
2022/08/05 05:46:22;;;;;;;5.53;3.17;;;29.40;41.90;;;;;;6296164;28;20040;-71
2022/08/05 05:49:23;;;;;;;9.63;2.90;;;29.40;41.80;;;;;;6297607;28;20094;-71
2022/08/05 05:52:24;;;;;;;6.60;3.42;;;29.50;41.90;;;;;;6299052;28;20039;-72
2022/08/05 05:55:25;;;;;;;8.75;2.83;;;29.40;41.80;;;;;;6298560;28;20047;-72
2022/08/05 05:58:26;;;;;;;4.32;3.17;;;29.40;41.80;;;;;;6296754;28;20423;-70
2022/08/05 06:01:27;;;;;;;13.02;3.28;;;29.40;41.90;;;;;;6298553;28;20043;-73
2022/08/05 06:04:27;;;;;;;6.90;3.33;;;29.40;41.90;;;;;;6298501;28;20039;-71
2022/08/05 06:07:28;;;;;;;2.83;2.53;;;29.40;41.90;;;;;;6299103;28;20124;-72
2022/08/05 06:10:30;;;;;;;6.10;2.85;;;29.40;41.80;;;;;;6298432;28;20045;-73
2022/08/05 06:13:31;;;;;;;4.03;3.20;;;29.50;41.80;;;;;;6297435;28;20126;-72
2022/08/05 06:16:32;;;;;;;8.95;2.90;;;29.50;41.80;;;;;;6290708;28;20124;-72
2022/08/05 06:19:36;;;;;;;3.25;2.55;;;29.50;41.80;;;;;;6296649;28;20036;-73
2022/08/05 06:22:37;;;;;;;8.75;2.95;;;29.50;41.70;;;;;;6298126;28;20067;-71
2022/08/05 06:25:37;;;;;;;8.50;3.28;;;29.50;41.60;;;;;;6297049;28;20029;-71
2022/08/05 06:28:38;;;;;;;9.95;2.97;;;29.60;41.60;;;;;;6298250;28;20125;-72
2022/08/05 06:31:39;;;;;;;9.20;3.78;;;29.60;41.50;;;;;;6296636;28;20101;-71
2022/08/05 06:34:41;;;;;;;4.05;3.33;;;29.80;41.30;;;;;;6295548;28;20060;-71
2022/08/05 06:37:41;;;;;;;6.55;2.88;;;29.80;41.10;;;;;;6297859;28;20150;-71
2022/08/05 06:40:42;;;;;;;6.80;2.97;;;29.90;41.10;;;;;;6297272;28;20468;-71
2022/08/05 06:43:43;;;;;;;10.15;3.22;;;29.90;40.90;;;;;;6297806;28;20033;-72
2022/08/05 06:46:44;;;;;;;3.38;2.88;;;29.90;40.70;;;;;;6297413;28;20029;-72
2022/08/05 06:49:46;;;;;;;5.03;3.22;;;30.00;40.70;;;;;;6297528;28;20036;-72
2022/08/05 06:52:47;;;;;;;10.38;3.13;;;30.10;40.60;;;;;;6295954;28;20102;-72
2022/08/05 06:55:48;;;;;;;3.30;2.97;;;30.20;40.40;;;;;;6278623;28;20056;-72
2022/08/05 06:58:49;;;;;;;6.47;3.33;;;30.30;40.30;;;;;;6296580;28;20036;-71
2022/08/05 07:01:50;;;;;;;5.32;3.15;;;30.40;40.10;;;;;;6297268;28;20041;-72
2022/08/05 07:04:51;;;;;;;8.70;3.50;;;30.50;40.00;;;;;;6297092;28;20028;-71
2022/08/05 07:07:51;;;;;;;4.10;3.17;;;30.50;39.80;;;;;;6297060;28;20040;-72
2022/08/05 07:10:53;;;;;;;7.80;3.20;;;30.60;39.80;;;;;;6295502;28;20048;-72
2022/08/05 07:17:13;;;;;;;12.85;3.22;;;30.70;39.30;;;;;;6294396;28;20045;-71
2022/08/05 07:20:14;;;;;;;14.25;3.10;;;30.80;39.30;;;;;;6277282;28;20426;-71
2022/08/05 07:23:15;;;;;;;13.45;3.83;;;30.80;39.50;;;;;;6295108;28;20417;-71
2022/08/05 07:26:15;;;;;;;9.35;3.05;;;30.80;39.70;;;;;;6294852;28;20415;-71
2022/08/05 07:29:16;;;;;;;12.20;3.45;;;30.80;39.70;;;;;;6294673;28;20170;-72
2022/08/05 07:32:17;;;;;;;13.85;3.47;;;30.80;39.70;;;;;;6294857;28;20036;-71
2022/08/05 07:35:18;;;;;;;10.18;2.95;;;30.90;39.70;;;;;;6293117;28;20055;-73
2022/08/05 07:38:19;;;;;;;11.68;3.47;;;31.00;39.70;;;;;;6293924;28;20483;-70
2022/08/05 07:41:22;;;;;;;9.68;3.25;;;31.10;39.40;;;;;;6293083;28;20025;-71
2022/08/05 07:44:22;;;;;;;7.55;3.38;;;31.30;39.20;;;;;;6294987;28;20045;-71
2022/08/05 07:47:24;;;;;;;16.10;3.38;;;31.40;39.00;;;;;;6293182;28;20508;-70
2022/08/05 07:50:25;;;;;;;6.85;3.15;;;31.50;38.90;;;;;;6294546;28;20056;-71
2022/08/05 07:53:25;;;;;;;31.73;3.92;;;31.60;38.80;;;;;;6293516;28;20039;-72
2022/08/05 07:56:26;;;;;;;10.63;3.35;;;31.70;38.60;;;;;;6294151;28;20131;-71
2022/08/05 07:59:27;;;;;;;10.30;3.03;;;31.80;38.40;;;;;;6294794;28;20148;-71
2022/08/05 08:02:28;;;;;;;16.15;3.83;;;32.00;38.20;;;;;;6294356;28;20073;-73
2022/08/05 08:05:29;;;;;;;11.38;3.25;;;32.10;38.10;;;;;;6294333;28;20044;-72
2022/08/05 08:08:30;;;;;;;20.33;3.42;;;32.20;37.90;;;;;;6293285;28;20351;-72
2022/08/05 08:11:31;;;;;;;14.02;3.25;;;32.20;37.70;;;;;;6294305;28;20055;-71
2022/08/05 08:14:32;;;;;;;9.95;2.72;;;32.20;37.50;;;;;;6294398;28;20060;-72
2022/08/05 08:17:33;;;;;;;5.80;2.55;;;32.30;37.40;;;;;;6293799;28;20119;-72
2022/08/05 08:20:34;;;;;;;10.80;3.38;;;32.30;37.20;;;;;;6294233;28;20032;-71
2022/08/05 08:23:35;;;;;;;14.85;3.10;;;32.40;37.20;;;;;;6294299;28;20033;-71
2022/08/05 08:26:36;;;;;;;5.47;3.05;;;32.40;37.20;;;;;;6293958;28;20361;-71
2022/08/05 08:29:36;;;;;;;10.63;3.05;;;32.40;37.10;;;;;;6294302;28;20047;-71
2022/08/05 08:32:37;;;;;;;15.85;3.70;;;32.50;37.00;;;;;;6292957;28;20037;-71
2022/08/05 08:35:38;;;;;;;3.83;2.53;;;32.50;36.90;;;;;;6294243;28;20098;-71
2022/08/05 08:38:39;;;;;;;5.22;3.58;;;32.60;36.80;;;;;;6293246;28;20040;-71
2022/08/05 08:41:41;;;;;;;10.95;3.55;;;32.70;36.60;;;;;;6293569;28;20040;-71
2022/08/05 08:44:43;;;;;;;6.85;3.00;;;32.80;36.60;;;;;;6287287;28;20086;-71
2022/08/05 08:47:46;;;;;;;10.73;3.35;;;32.70;36.50;;;;;;6291390;28;20047;-71
2022/08/05 08:50:48;;;;;;;6.07;2.95;;;32.70;36.50;;;;;;6297816;28;20037;-71
2022/08/05 08:53:49;;;;;;;7.30;3.28;;;32.70;36.40;;;;;;6297467;28;20165;-71
2022/08/05 08:56:50;;;;;;;9.20;3.35;;;32.70;36.40;;;;;;6297114;28;20139;-73
2022/08/05 08:59:51;;;;;;;7.80;3.13;;;32.70;36.30;;;;;;6296729;28;20040;-72
2022/08/05 09:02:55;;;;;;;7.13;3.08;;;32.70;36.30;;;;;;6298462;28;20373;-71
2022/08/05 09:05:56;;;;;;;14.02;3.70;;;32.80;36.40;;;;;;6299100;28;20105;-72
2022/08/05 09:08:59;;;;;;;13.10;3.30;;;32.80;36.30;;;;;;6297306;28;20047;-72
2022/08/05 09:12:01;;;;;;;8.35;3.38;;;32.90;36.20;;;;;;6298560;28;20056;-73
2022/08/05 09:15:04;;;;;;;8.02;3.40;;;33.00;36.00;;;;;;6297949;28;20396;-72
2022/08/05 09:18:08;;;;;;;7.10;3.45;;;33.10;35.80;;;;;;6280138;28;20048;-71
2022/08/05 09:21:09;;;;;;;5.10;3.47;;;33.20;35.60;;;;;;6296234;28;20089;-72
2022/08/05 09:24:12;;;;;;;10.77;2.75;;;33.30;35.30;;;;;;6297202;28;20470;-72
2022/08/05 09:27:29;;;;;;;12.95;3.20;;;33.50;35.10;;;;;;6297799;28;20047;-72
2022/08/05 09:30:30;;;;;;;9.82;3.00;;;33.60;34.70;;;;;;6297379;28;20131;-72
2022/08/05 09:33:47;;;;;;;5.13;2.60;;;33.80;34.40;;;;;;6295325;28;20064;-72
2022/08/05 09:36:51;;;;;;;7.07;2.80;;;33.90;34.00;;;;;;6296283;28;20040;-72
2022/08/05 09:39:52;;;;;;;5.82;3.15;;;34.10;33.90;;;;;;6296900;28;20071;-72
2022/08/05 09:42:53;;;;;;;10.85;2.90;;;34.20;33.60;;;;;;6296509;28;20044;-72
2022/08/05 09:45:54;;;;;;;11.80;2.92;;;34.30;33.20;;;;;;6297353;28;20047;-72
2022/08/05 09:48:57;;;;;;;3.70;2.88;;;34.50;32.90;;;;;;6296671;28;20567;-72
2022/08/05 09:52:15;;;;;;;12.73;3.10;;;34.50;32.70;;;;;;6296293;28;20484;-71
2022/08/05 09:55:15;;;;;;;15.73;3.58;;;34.70;32.60;;;;;;6288865;28;20120;-70
2022/08/05 09:58:16;;;;;;;5.63;3.22;;;34.80;32.80;;;;;;6296023;28;20036;-71
2022/08/05 10:01:17;;;;;;;8.38;3.67;;;35.00;32.40;;;;;;6294759;28;20041;-72
2022/08/05 10:04:18;;;;;;;11.15;3.65;;;35.10;32.20;;;;;;6294574;28;20032;-71
2022/08/05 10:07:19;;;;;;;8.93;2.97;;;35.20;32.10;;;;;;6295619;28;20033;-72
2022/08/05 10:10:22;;;;;;;22.98;3.13;;;35.20;31.90;;;;;;6296257;28;20111;-71
2022/08/05 10:13:36;;;;;;;6.40;3.38;;;35.30;31.70;;;;;;6284840;28;20163;-72
2022/08/05 10:16:37;;;;;;;4.22;3.03;;;35.30;31.90;;;;;;6295473;28;20105;-73
2022/08/05 10:19:38;;;;;;;10.32;3.25;;;35.30;32.10;;;;;;6295285;28;20484;-71
2022/08/05 10:22:40;;;;;;;7.22;3.00;;;35.30;32.00;;;;;;6295384;28;20036;-72
2022/08/05 10:25:41;;;;;;;3.55;2.83;;;35.30;32.00;;;;;;6295369;28;20037;-72
2022/08/05 10:28:44;;;;;;;6.47;3.25;;;35.30;31.80;;;;;;6295406;28;20048;-74
2022/08/05 10:31:45;;;;;;;8.02;3.33;;;35.30;31.70;;;;;;6295314;28;20055;-71
2022/08/05 10:34:47;;;;;;;5.05;3.08;;;35.30;31.80;;;;;;6293925;28;20358;-72
2022/08/05 10:37:48;;;;;;;5.18;3.25;;;35.30;31.70;;;;;;6295460;28;20532;-72
2022/08/05 10:40:48;;;;;;;5.97;3.10;;;35.50;31.60;;;;;;6293843;28;20037;-73
2022/08/05 10:43:58;;;;;;;8.25;3.38;;;35.60;31.40;;;;;;6291899;28;20103;-73
2022/08/05 10:47:09;;;;;;;5.32;2.88;;;35.80;31.10;;;;;;6270685;28;20024;-72
2022/08/05 10:50:15;;;;;;;7.07;2.90;;;36.00;30.80;;;;;;6292079;28;20509;-72
2022/08/05 10:53:52;;;;;;;7.82;3.35;;;36.00;30.40;;;;;;6288514;28;20531;-73
2022/08/05 10:56:57;;;;;;;4.65;2.78;;;36.10;30.20;;;;;;6289528;28;20143;-71
2022/08/05 11:00:21;;;;;;;4.47;2.90;;;36.20;30.80;;;;;;6294010;28;20044;-73
2022/08/05 11:03:22;;;;;;;3.70;2.33;;;36.40;29.80;;;;;;6288679;28;20033;-72
2022/08/05 11:06:23;;;;;;;2.85;2.22;;;36.90;28.30;;;;;;6292776;28;20040;-72
2022/08/05 11:09:43;;;;;;;5.38;2.75;;;37.60;27.30;;;;;;6292967;28;20035;-72
2022/08/05 11:12:45;;;;;;;2.80;2.28;;;38.10;26.80;;;;;;6292640;28;20056;-72
2022/08/05 11:15:46;;;;;;;3.72;2.20;;;38.70;25.80;;;;;;6293175;28;20330;-71
2022/08/05 11:18:47;;;;;;;6.93;2.67;;;39.20;25.10;;;;;;6292326;28;20033;-70
2022/08/05 11:21:48;;;;;;;7.45;2.10;;;39.50;24.60;;;;;;6291826;28;20404;-70
2022/08/05 11:25:28;;;;;;;2.92;2.20;;;39.90;24.20;;;;;;6273851;28;20050;-71
2022/08/05 11:28:31;;;;;;;5.20;2.35;;;39.90;24.00;;;;;;6290462;28;20032;-72
2022/08/05 11:31:32;;;;;;;9.38;2.28;;;39.60;24.10;;;;;;6292264;28;20465;-72
2022/08/05 11:34:39;;;;;;;3.40;2.30;;;39.40;24.30;;;;;;6292759;28;20128;-72
2022/08/05 11:38:01;;;;;;;3.57;2.50;;;39.40;24.20;;;;;;6292138;28;20127;-71
2022/08/05 11:41:21;;;;;;;3.33;2.50;;;39.40;24.40;;;;;;6282451;28;20263;-72
2022/08/05 11:44:28;;;;;;;8.68;2.75;;;39.20;24.40;;;;;;6292389;28;20032;-72
2022/08/05 11:47:31;;;;;;;6.68;2.20;;;39.10;24.50;;;;;;6291256;28;20120;-72
2022/08/05 11:50:37;;;;;;;5.60;2.28;;;38.90;24.80;;;;;;6287381;28;20046;-72
2022/08/05 11:53:40;;;;;;;5.03;2.60;;;38.70;25.10;;;;;;6293580;28;20024;-72
2022/08/05 11:56:50;;;;;;;6.18;2.63;;;38.70;25.20;;;;;;6291485;28;20072;-71
2022/08/05 11:59:53;;;;;;;3.60;2.20;;;38.70;25.40;;;;;;6275189;28;20048;-73
2022/08/05 12:02:54;;;;;;;3.58;2.15;;;38.70;25.30;;;;;;6293184;28;20127;-72
2022/08/05 12:05:58;;;;;;;4.18;2.05;;;38.70;25.90;;;;;;6293087;28;20408;-71
2022/08/05 12:08:59;;;;;;;3.47;2.28;;;39.00;25.10;;;;;;6295147;28;20514;-71
2022/08/05 12:12:00;;;;;;;3.45;2.20;;;39.30;24.80;;;;;;6294755;28;20033;-71
2022/08/05 12:15:01;;;;;;;11.70;2.70;;;39.50;24.60;;;;;;6294649;28;20043;-71
2022/08/05 12:18:02;;;;;;;14.48;2.50;;;40.00;24.30;;;;;;6294122;28;20098;-71
2022/08/05 12:21:17;;;;;;;4.57;2.05;;;40.30;24.00;;;;;;6293461;28;20035;-71
2022/08/05 12:24:20;;;;;;;5.00;2.53;;;40.40;23.80;;;;;;6293822;28;20177;-71
2022/08/05 12:27:25;;;;;;;3.67;2.13;;;40.50;23.80;;;;;;6298965;28;20480;-71
2022/08/05 12:30:26;;;;;;;3.17;2.58;;;40.80;23.40;;;;;;6297551;28;20055;-71
2022/08/05 12:33:27;;;;;;;10.77;2.63;;;40.90;23.10;;;;;;6298986;28;20190;-71
2022/08/05 12:36:28;;;;;;;2.95;2.17;;;40.90;23.00;;;;;;6299098;28;20115;-71
2022/08/05 12:39:32;;;;;;;7.75;2.28;;;40.80;23.00;;;;;;6298419;28;20048;-72
2022/08/05 12:42:34;;;;;;;3.20;2.17;;;40.80;23.00;;;;;;6295176;28;20123;-72
2022/08/05 12:45:35;;;;;;;5.57;2.45;;;41.10;22.70;;;;;;6299251;28;20055;-72
2022/08/05 12:48:39;;;;;;;3.35;2.35;;;41.40;22.30;;;;;;6296757;28;20129;-71
2022/08/05 12:51:59;;;;;;;3.97;2.25;;;41.50;22.10;;;;;;6299332;28;20048;-71
2022/08/05 12:55:00;;;;;;;6.30;2.47;;;41.50;22.10;;;;;;6296598;28;20074;-73
2022/08/05 12:58:01;;;;;;;4.20;2.25;;;41.50;21.90;;;;;;6298282;28;20033;-71
2022/08/05 13:01:02;;;;;;;4.45;1.90;;;41.60;22.00;;;;;;6297533;28;20045;-71
2022/08/05 13:04:04;;;;;;;3.90;2.25;;;41.80;21.70;;;;;;6298368;28;20116;-71
2022/08/05 13:07:11;;;;;;;3.88;2.17;;;42.30;21.40;;;;;;6298165;28;20515;-71
2022/08/05 13:10:13;;;;;;;;;;;42.70;21.00;;;;;;6297940;28;20464;-71
2022/08/05 13:13:18;;;;;;;6.93;2.13;;;42.80;20.90;;;;;;6296644;28;19912;-71
2022/08/05 13:16:19;;;;;;;2.75;2.20;;;42.60;21.10;;;;;;6297542;28;20472;-71
2022/08/05 13:19:26;;;;;;;4.90;2.20;;;42.90;20.80;;;;;;6297686;28;20104;-70
2022/08/05 13:22:27;;;;;;;;;;;43.70;20.30;;;;;;6297737;28;20070;-70
2022/08/05 13:25:28;;;;;;;4.68;2.20;;;44.50;19.60;;;;;;6297103;28;19912;-71
2022/08/05 13:28:29;;;;;;;3.60;2.53;;;45.20;19.10;;;;;;6296364;28;20032;-71
2022/08/05 13:31:30;;;;;;;5.10;2.20;;;45.30;18.90;;;;;;6297634;28;20381;-71
2022/08/05 13:34:31;;;;;;;5.95;2.17;;;45.50;18.80;;;;;;6295270;28;20124;-70
2022/08/05 13:37:32;;;;;;;2.25;2.05;;;45.90;18.60;;;;;;6297907;28;20449;-71
2022/08/05 13:40:33;;;;;;;1.90;1.80;;;46.60;18.10;;;;;;6297884;28;20043;-71
2022/08/05 13:43:34;;;;;;;4.47;1.98;;;47.30;17.60;;;;;;6296085;28;20032;-71
2022/08/05 13:46:37;;;;;;;4.97;2.08;;;46.90;17.70;;;;;;6298238;28;20032;-72
2022/08/05 13:49:38;;;;;;;4.53;2.05;;;46.00;18.10;;;;;;6295216;28;20044;-70
2022/08/05 13:52:39;;;;;;;9.02;2.20;;;44.70;19.00;;;;;;6296378;28;20052;-70
2022/08/05 13:55:40;;;;;;;4.22;2.40;;;43.40;19.80;;;;;;6295979;28;20055;-70
2022/08/05 13:58:40;;;;;;;4.20;2.00;;;43.50;20.00;;;;;;6296039;28;20052;-71
2022/08/05 14:01:41;;;;;;;3.72;2.20;;;43.90;19.50;;;;;;6297348;28;20036;-71
2022/08/05 14:05:26;;;;;;;5.00;2.38;;;44.20;19.50;;;;;;6297253;28;20369;-71
2022/08/05 14:08:08;;;;;;;6.57;2.30;;;44.50;19.10;;;;;;6290556;28;20468;-71
2022/08/05 14:11:09;;;;;;;6.00;2.13;;;44.10;19.50;;;;;;6295976;28;20383;-71
2022/08/05 14:14:10;;;;;;;4.82;2.42;;;43.40;20.00;;;;;;6297305;28;20457;-72
2022/08/05 14:17:12;;;;;;;3.38;2.03;;;42.70;20.30;;;;;;6295805;28;20040;-72
2022/08/05 14:20:13;;;;;;;4.40;2.50;;;42.20;20.70;;;;;;6296775;28;20079;-71
2022/08/05 14:23:15;;;;;;;2.25;2.05;;;41.80;21.20;;;;;;6296067;28;20044;-71
2022/08/05 14:26:16;;;;;;;3.03;2.13;;;41.40;21.50;;;;;;6279500;28;20054;-71
2022/08/05 14:29:17;;;;;;;6.38;2.38;;;41.10;21.70;;;;;;6288643;28;20041;-70
2022/08/05 14:32:18;;;;;;;15.48;2.58;;;40.80;22.00;;;;;;6295629;28;20086;-70
2022/08/05 14:35:19;;;;;;;4.53;2.20;;;40.50;22.20;;;;;;6295329;28;20036;-70
2022/08/05 14:38:21;;;;;;;4.75;2.00;;;40.30;22.30;;;;;;6296347;28;20090;-71
2022/08/05 14:41:22;;;;;;;3.25;2.28;;;40.20;22.40;;;;;;6294631;28;20044;-71
2022/08/05 14:44:23;;;;;;;4.85;2.50;;;40.00;22.70;;;;;;6295898;28;20044;-71
2022/08/05 14:47:24;;;;;;;3.85;2.38;;;39.60;23.20;;;;;;6296061;28;20032;-71
2022/08/05 14:50:25;;;;;;;5.28;2.58;;;39.10;23.60;;;;;;6294790;28;20063;-71
2022/08/05 14:53:26;;;;;;;3.35;2.05;;;38.80;23.90;;;;;;6294996;28;20036;-71
2022/08/05 14:56:27;;;;;;;5.97;2.38;;;38.60;24.10;;;;;;6295244;28;20044;-71
2022/08/05 14:59:28;;;;;;;4.97;2.55;;;38.50;24.20;;;;;;6295667;28;20071;-71
2022/08/05 15:02:28;;;;;;;3.45;2.50;;;38.40;24.40;;;;;;6293961;28;20307;-71
2022/08/05 15:05:29;;;;;;;7.28;2.55;;;38.30;24.70;;;;;;6294623;28;20056;-71
2022/08/05 15:08:30;;;;;;;6.13;2.58;;;38.10;25.20;;;;;;6296177;28;20125;-70
2022/08/05 15:11:32;;;;;;;4.57;2.22;;;38.00;25.40;;;;;;6296240;28;20128;-71
2022/08/05 15:14:33;;;;;;;8.50;2.58;;;37.80;25.10;;;;;;6296655;28;20048;-72
2022/08/05 15:17:34;;;;;;;5.15;2.97;;;37.70;25.30;;;;;;6296712;28;20104;-71
2022/08/05 15:20:35;;;;;;;13.13;3.10;;;37.60;26.20;;;;;;6295372;28;20103;-72
2022/08/05 15:23:35;;;;;;;11.30;3.05;;;37.40;26.80;;;;;;6296136;28;20474;-71
2022/08/05 15:26:36;;;;;;;7.63;2.65;;;37.20;27.40;;;;;;6295361;28;20063;-71
2022/08/05 15:29:37;;;;;;;4.97;2.60;;;37.10;28.00;;;;;;6296518;28;20071;-71
2022/08/05 15:32:38;;;;;;;9.38;2.80;;;36.90;28.10;;;;;;6296557;28;20043;-71
2022/08/05 15:35:39;;;;;;;6.35;2.83;;;36.80;28.50;;;;;;6295945;28;20123;-71
2022/08/05 15:38:40;;;;;;;10.52;2.67;;;36.80;28.70;;;;;;6296016;28;20053;-71
2022/08/05 15:41:40;;;;;;;3.83;2.63;;;36.80;28.50;;;;;;6278714;28;20358;-71
2022/08/05 15:44:41;;;;;;;7.55;2.70;;;36.80;28.60;;;;;;6296353;28;20040;-71
2022/08/05 15:47:44;;;;;;;13.38;2.95;;;36.90;28.70;;;;;;6277580;28;20454;-73
2022/08/05 15:50:46;;;;;;;17.92;2.92;;;37.10;28.60;;;;;;6278130;28;20098;-71
2022/08/05 15:53:50;;;;;;;5.93;2.70;;;37.00;28.50;;;;;;6292812;28;20369;-72